• Join FlightAware (Why Join?)
  • Login
  • US Flag 
06:30PM EST


 

Airport Tracker/Info


-or-


 

Live Flight TrackerFlight Track Log ✈ EJA396 ✈ 05-May-2014 ✈ KFFZ - KGPI

Flight Track Log - Related Links

Times and Time Zones

All times are in EDT time to prevent confusion due to time zone crossing. See the EJA396 flight status page for this flight to view local times or setup timezone preferences in your user account.

Time Position Orientation Groundspeed Altitude Reporting Facility
EDT Latitude Longitude Course Direction KTS MPH feet Rate Location/Type
03:23PM 33.4500 -111.7333 180° South 161 185 2,000  Level Phoenix TRACON
03:24PM 33.4000 -111.7333 180° South 211 243 3,000 1,020 Climbing Phoenix TRACON
03:25PM 33.3500 -111.7333 180° South 204 235 4,000 840 Climbing Phoenix TRACON
03:26PM 33.3167 -111.7667 220° Southwest 197 227 4,700 1,140 Climbing Phoenix TRACON
03:27PM 33.2833 -111.8167 231° Southwest 208 239 6,200 2,340 Climbing Phoenix TRACON
03:28PM 33.2333 -111.8667 220° Southwest 225 259 9,200 3,600 Climbing Phoenix TRACON
03:29PM 33.2333 -111.9500 270° West 265 305 13,500 3,780 Climbing Phoenix TRACON
03:30PM 33.3167 -111.9500 360° North 309 356 16,800 3,060 Climbing Phoenix TRACON
03:31PM 33.4333 -111.9333 North 353 406 20,300 2,040 Climbing Phoenix TRACON
03:32PM 33.5167 -111.9167 North 394 453 21,000 1,200 Climbing Phoenix TRACON
03:33PM 33.6886 -111.8703 13° North 420 483 23,200 1,980 Climbing Albuquerque Center
03:34PM 33.8044 -111.8247 18° North 413 475 26,200 2,700 Climbing Albuquerque Center
03:35PM 33.9147 -111.7811 18° North 416 479 28,800 2,220 Climbing Albuquerque Center
03:36PM 34.0286 -111.7361 18° North 428 493 30,800 2,100 Climbing Albuquerque Center
03:37PM 34.1528 -111.6872 18° North 432 497 33,200 2,100 Climbing Albuquerque Center
03:38PM 34.2639 -111.6439 18° North 433 498 35,200 1,980 Climbing Albuquerque Center
03:39PM 34.3775 -111.6447 360° North 422 486 37,300 1,800 Climbing Albuquerque Center
03:40PM 34.4839 -111.6778 346° North 406 467 39,000 1,260 Climbing Albuquerque Center
03:41PM 34.5903 -111.7106 346° North 400 460 40,000 480 Climbing Albuquerque Center
03:42PM 34.7256 -111.7536 345° North 408 470 40,000  Level Albuquerque Center
03:43PM 34.8467 -111.7917 346° North 440 506 40,000  Level Albuquerque Center
03:44PM 34.9669 -111.8303 345° North 447 514 40,000  Level Albuquerque Center
03:45PM 35.0889 -111.8686 346° North 452 520 40,000  Level Albuquerque Center
03:46PM 35.2114 -111.9072 346° North 453 521 40,000  Level Albuquerque Center
03:48PM 35.3583 -111.9536 346° North 455 524 40,000  Level Albuquerque Center
03:49PM 35.4825 -111.9931 345° North 460 529 40,000  Level Albuquerque Center
03:50PM 35.6039 -112.0311 346° North 461 531 40,000  Level Los Angeles Center
03:51PM 35.7269 -112.0703 346° North 460 529 40,000  Level Los Angeles Center
03:53PM 35.9989 -112.1503 347° North 461 531 40,000  Level Albuquerque Center
03:54PM 36.1278 -112.1625 356° North 463 533 40,000  Level Albuquerque Center
03:55PM 36.2617 -112.1761 355° North 466 536 40,000  Level Los Angeles Center
03:56PM 36.3906 -112.1914 355° North 465 535 40,000  Level Los Angeles Center
03:57PM 36.5203 -112.2042 355° North 465 535 40,000  Level Los Angeles Center
03:58PM 36.6497 -112.2172 355° North 465 535 40,000  Level Los Angeles Center
03:59PM 36.8044 -112.2336 355° North 466 536 40,000  Level Los Angeles Center
04:00PM 36.9342 -112.2472 355° North 466 536 40,000  Level Los Angeles Center
04:01PM 37.0628 -112.2608 355° North 466 536 40,000  Level Los Angeles Center
04:02PM 37.1947 -112.2747 355° North 470 541 40,000  Level Los Angeles Center
04:03PM 37.3256 -112.2886 355° North 474 545 40,000  Level Los Angeles Center
04:04PM 37.4808 -112.3047 355° North 472 543 40,000  Level Los Angeles Center
04:05PM 37.6361 -112.3217 355° North 471 542 40,000  Level Salt Lake Center
04:06PM 37.7931 -112.3397 355° North 472 543 40,000  Level Salt Lake Center
04:07PM 37.9231 -112.3536 355° North 472 543 40,000  Level Salt Lake Center
04:08PM 38.0531 -112.3675 355° North 472 543 40,000  Level Salt Lake Center
04:10PM 38.1825 -112.3808 355° North 471 542 40,000  Level Salt Lake Center
04:11PM 38.3128 -112.3956 355° North 472 543 40,000  Level Salt Lake Center
04:12PM 38.4433 -112.4106 355° North 472 543 40,000  Level Salt Lake Center
04:13PM 38.5731 -112.4239 355° North 471 542 40,000 420 Level Salt Lake Center
04:14PM 38.7286 -112.4411 355° North 471 542 40,900 780 Climbing Salt Lake Center
04:15PM 38.8581 -112.4564 355° North 470 541 41,700 780 Climbing Salt Lake Center
04:16PM 38.9892 -112.4706 355° North 470 541 42,500 600 Climbing Salt Lake Center
04:17PM 39.1164 -112.4850 355° North 464 534 43,000 240 Climbing Salt Lake Center
04:18PM 39.2397 -112.4978 355° North 466 536 43,000  Level Salt Lake Center
04:19PM 39.3731 -112.5028 358° North 476 548 43,000  Level Salt Lake Center
04:20PM 39.5333 -112.5017 360° North 480 552 43,000  Level Salt Lake Center
04:21PM 39.6669 -112.4989 North 480 552 43,000  Level Salt Lake Center
04:22PM 39.8006 -112.4972 North 480 552 43,000  Level Salt Lake Center
04:23PM 39.9356 -112.4950 North 482 555 43,000  Level Salt Lake Center
04:24PM 40.0694 -112.4928 North 481 554 43,000  Level Salt Lake Center
04:25PM 40.2036 -112.4900 North 482 555 43,000  Level Salt Lake Center
04:26PM 40.3383 -112.4869 North 481 554 43,000  Level Salt Lake Center
04:27PM 40.4719 -112.4844 North 482 555 43,000  Level Salt Lake Center
04:28PM 40.6325 -112.4811 North 480 552 43,000  Level Salt Lake Center
04:29PM 40.7664 -112.4789 North 478 550 43,000  Level Salt Lake Center
04:30PM 40.8978 -112.4764 North 472 543 43,000  Level Salt Lake Center
04:31PM 41.0300 -112.4733 North 472 543 43,000  Level Salt Lake Center
04:32PM 41.1617 -112.4717 North 469 540 43,000  Level Salt Lake Center
04:33PM 41.2939 -112.4694 North 469 540 43,000  Level Salt Lake Center
04:34PM 41.4269 -112.4667 North 472 543 43,000  Level Salt Lake Center
04:35PM 41.5586 -112.4647 North 472 543 43,000  Level Salt Lake Center
04:36PM 41.6897 -112.4675 359° North 472 543 43,000  Level Salt Lake Center
04:37PM 41.8428 -112.5028 350° North 469 540 43,000  Level Salt Lake Center
04:38PM 41.9708 -112.5300 351° North 468 539 43,000  Level Salt Lake Center
04:39PM 42.0983 -112.5600 350° North 468 539 43,000  Level Salt Lake Center
04:40PM 42.2272 -112.5903 350° North 468 539 43,000  Level Salt Lake Center
04:41PM 42.3556 -112.6192 351° North 468 539 43,000  Level Salt Lake Center
04:42PM 42.4850 -112.6517 350° North 468 539 43,000  Level Salt Lake Center
04:43PM 42.6147 -112.6814 350° North 470 541 43,000  Level Salt Lake Center
04:44PM 42.7522 -112.7144 350° North 471 542 43,000  Level Salt Lake Center
04:45PM 42.8972 -112.7492 350° North 471 542 43,000  Level Salt Lake Center
04:46PM 43.0206 -112.7783 350° North 471 542 43,000  Level Salt Lake Center
04:47PM 43.1647 -112.8131 350° North 471 542 43,000  Level Salt Lake Center
04:49PM 43.2886 -112.8442 350° North 471 542 43,000  Level Salt Lake Center
04:50PM 43.4125 -112.8747 350° North 471 542 43,000  Level Salt Lake Center
04:51PM 43.5583 -112.9100 350° North 471 542 43,000 -180 Level Salt Lake Center
04:52PM 43.6828 -112.9414 350° North 472 543 42,700 -720 Descending Salt Lake Center
04:53PM 43.8281 -112.9769 350° North 473 544 41,600 -840 Descending Salt Lake Center
04:54PM 43.9506 -113.0075 350° North 471 542 41,000 -300 Descending Salt Lake Center
04:55PM 44.0725 -113.0378 350° North 468 539 41,000  Level Salt Lake Center
04:56PM 44.2172 -113.0739 350° North 468 539 41,000  Level Salt Lake Center
04:57PM 44.3417 -113.1042 350° North 469 540 41,000  Level Salt Lake Center
04:58PM 44.4853 -113.1414 350° North 469 540 41,000  Level Salt Lake Center
04:59PM 44.6083 -113.1719 350° North 469 540 41,000  Level Salt Lake Center
05:00PM 44.7511 -113.2083 350° North 468 539 41,000  Level Salt Lake Center
05:01PM 44.8736 -113.2397 350° North 467 537 41,000  Level Salt Lake Center
05:02PM 44.9958 -113.2711 350° North 466 536 41,000  Level Salt Lake Center
05:03PM 45.1386 -113.3081 350° North 466 536 41,000  Level Salt Lake Center
05:04PM 45.2594 -113.3397 350° North 465 535 41,000  Level Salt Lake Center
05:05PM 45.3994 -113.3764 350° North 463 533 41,000  Level Salt Lake Center
05:06PM 45.5303 -113.4100 350° North 462 532 41,000  Level Salt Lake Center
05:07PM 45.6608 -113.4461 349° North 470 541 41,000  Level Salt Lake Center
05:08PM 45.7897 -113.4800 350° North 466 536 41,000  Level Salt Lake Center
05:09PM 45.9208 -113.5144 350° North 467 537 41,000  Level Salt Lake Center
05:10PM 46.0533 -113.5500 349° North 473 544 41,000  Level Salt Lake Center
05:11PM 46.1861 -113.5875 349° North 464 534 41,000  Level Salt Lake Center
05:12PM 46.3106 -113.6308 346° North 463 533 41,000 -360 Level Salt Lake Center
05:13PM 46.4333 -113.6744 346° North 455 524 40,300 -1,620 Descending Salt Lake Center
05:14PM 46.5567 -113.7222 345° North 456 525 37,800 -2,460 Descending Salt Lake Center
05:15PM 46.6822 -113.7681 346° North 461 531 35,300 -2,400 Descending Salt Lake Center
05:16PM 46.8050 -113.8144 346° North 460 529 32,900 -2,280 Descending Salt Lake Center
05:17PM 46.9244 -113.8603 345° North 447 514 30,600 -2,280 Descending Salt Lake Center
05:18PM 47.0356 -113.9028 345° North 416 479 28,300 -2,340 Descending Salt Lake Center
05:19PM 47.1608 -113.9511 345° North 388 447 25,900 -2,160 Descending Salt Lake Center
05:20PM 47.2625 -113.9911 345° North 382 440 23,900 -1,980 Descending Salt Lake Center
05:21PM 47.3597 -114.0272 346° North 365 420 21,900 -1,860 Descending Salt Lake Center
05:22PM 47.4522 -114.0639 345° North 349 402 20,100 -1,800 Descending Salt Lake Center
05:23PM 47.5425 -114.0994 345° North 341 392 18,300 -3,300 Descending Salt Lake Center
05:24PM 47.6289 -114.1339 345° North 330 380 13,400 -3,660 Descending Salt Lake Center
05:26PM 47.7097 -114.1606 347° North 277 319 10,900 -2,460 Descending Salt Lake Center